KBKL

Cleveland Burke Lakefront Airport

Airport
ICAO code
KBKL
Summary
ICAO Region
NAM
ICAO Territory
Location

Cleveland, Ohio,

Coordinates
41° 31' 21" N , 81° 40' 9" W
KCC
Airport BS
Bird Strike
Airport RE
Landing on Contaminated Runways
Metar
Observation
KBKL 031953Z 03014G19KT 10SM CLR 16/08 A3030 RMK AO2 SLP263 T01560078
Station
Cleveland, Burke Lakefront Airport
Date/Time
2022-10-03 19:53:00
Wind direction
30°
Wind speed
14 kts
Lowest cloud amount
n/a
Temperature
15.6°C
Dew point
7.8°C
Humidity
59%
Weather condition
n/a

Description

Cleveland Burke Lakefront Airport is a public use airport situated on the shore of Lake Erie, in the northeast part of downtown Cleveland, in Cuyahoga County, Ohio.

Climatology

Humid continental climate (Köppen climate classification Dfa) - characterized by four seasons: cold, windy, snowy winters, mild springs, hot, humid summers, and crisp and relatively short autumns. Precipitation reaches its lowest in January and February and peaks in summer and latter half of spring.

Airport map

Aerial View

SKYbrary Partners:

Safety knowledge contributed by: